sensor_id;sensor_type;location;lat;lon;timestamp;P1;durP1;ratioP1;P2;durP2;ratioP2
11004;SDS011;5555;59.622;16.556;2023-07-09T00:01:53;5.23;;;4.83;;
11004;SDS011;5555;59.622;16.556;2023-07-09T00:04:19;6.10;;;5.57;;
11004;SDS011;5555;59.622;16.556;2023-07-09T00:06:44;6.33;;;5.77;;
11004;SDS011;5555;59.622;16.556;2023-07-09T00:09:14;6.90;;;5.93;;
11004;SDS011;5555;59.622;16.556;2023-07-09T00:11:41;6.87;;;6.20;;
11004;SDS011;5555;59.622;16.556;2023-07-09T00:14:08;6.90;;;6.20;;
11004;SDS011;5555;59.622;16.556;2023-07-09T00:16:35;6.70;;;6.03;;
11004;SDS011;5555;59.622;16.556;2023-07-09T00:19:01;5.77;;;5.27;;
11004;SDS011;5555;59.622;16.556;2023-07-09T00:21:28;5.70;;;5.20;;
11004;SDS011;5555;59.622;16.556;2023-07-09T00:23:58;6.47;;;5.40;;
11004;SDS011;5555;59.622;16.556;2023-07-09T00:26:29;7.50;;;6.60;;
11004;SDS011;5555;59.622;16.556;2023-07-09T00:28:57;6.43;;;5.80;;
11004;SDS011;5555;59.622;16.556;2023-07-09T00:31:23;5.93;;;5.47;;
11004;SDS011;5555;59.622;16.556;2023-07-09T00:33:50;7.17;;;6.03;;
11004;SDS011;5555;59.622;16.556;2023-07-09T00:36:16;6.27;;;5.67;;
11004;SDS011;5555;59.622;16.556;2023-07-09T00:38:59;6.93;;;6.30;;
11004;SDS011;5555;59.622;16.556;2023-07-09T00:41:29;7.00;;;6.30;;
11004;SDS011;5555;59.622;16.556;2023-07-09T00:43:58;6.93;;;6.33;;
11004;SDS011;5555;59.622;16.556;2023-07-09T00:49:15;7.57;;;6.97;;
11004;SDS011;5555;59.622;16.556;2023-07-09T00:51:55;7.50;;;6.73;;
11004;SDS011;5555;59.622;16.556;2023-07-09T00:54:28;7.53;;;6.83;;
11004;SDS011;5555;59.622;16.556;2023-07-09T00:56:59;6.97;;;6.27;;
11004;SDS011;5555;59.622;16.556;2023-07-09T00:59:31;8.50;;;7.80;;
11004;SDS011;5555;59.622;16.556;2023-07-09T01:01:58;9.37;;;8.47;;
11004;SDS011;5555;59.622;16.556;2023-07-09T01:04:25;8.77;;;7.97;;
11004;SDS011;5555;59.622;16.556;2023-07-09T01:06:52;8.90;;;7.33;;
11004;SDS011;5555;59.622;16.556;2023-07-09T01:09:20;10.03;;;9.03;;
11004;SDS011;5555;59.622;16.556;2023-07-09T01:11:47;11.43;;;10.23;;
11004;SDS011;5555;59.622;16.556;2023-07-09T01:14:13;9.13;;;8.20;;
11004;SDS011;5555;59.622;16.556;2023-07-09T01:16:46;10.50;;;8.23;;
11004;SDS011;5555;59.622;16.556;2023-07-09T01:19:21;9.77;;;8.77;;
11004;SDS011;5555;59.622;16.556;2023-07-09T01:21:48;9.40;;;8.47;;
11004;SDS011;5555;59.622;16.556;2023-07-09T01:24:45;10.43;;;9.33;;
11004;SDS011;5555;59.622;16.556;2023-07-09T01:27:13;12.50;;;10.57;;
11004;SDS011;5555;59.622;16.556;2023-07-09T01:29:39;10.63;;;9.53;;
11004;SDS011;5555;59.622;16.556;2023-07-09T01:32:07;11.13;;;10.00;;
11004;SDS011;5555;59.622;16.556;2023-07-09T01:34:33;13.60;;;10.37;;
11004;SDS011;5555;59.622;16.556;2023-07-09T01:36:59;11.00;;;9.90;;
11004;SDS011;5555;59.622;16.556;2023-07-09T01:39:26;10.80;;;9.80;;
11004;SDS011;5555;59.622;16.556;2023-07-09T01:41:55;10.80;;;9.70;;
11004;SDS011;5555;59.622;16.556;2023-07-09T01:44:21;11.10;;;10.07;;
11004;SDS011;5555;59.622;16.556;2023-07-09T01:46:48;9.77;;;8.70;;
11004;SDS011;5555;59.622;16.556;2023-07-09T01:49:14;10.13;;;9.10;;
11004;SDS011;5555;59.622;16.556;2023-07-09T01:51:40;13.00;;;10.77;;
11004;SDS011;5555;59.622;16.556;2023-07-09T01:54:06;11.67;;;10.50;;
11004;SDS011;5555;59.622;16.556;2023-07-09T01:56:31;13.73;;;11.67;;
11004;SDS011;5555;59.622;16.556;2023-07-09T01:58:57;11.60;;;10.37;;
11004;SDS011;5555;59.622;16.556;2023-07-09T02:01:26;13.00;;;11.67;;
11004;SDS011;5555;59.622;16.556;2023-07-09T02:03:58;11.30;;;9.80;;
11004;SDS011;5555;59.622;16.556;2023-07-09T02:06:24;11.47;;;10.30;;
11004;SDS011;5555;59.622;16.556;2023-07-09T02:08:50;14.37;;;11.53;;
11004;SDS011;5555;59.622;16.556;2023-07-09T02:11:16;11.43;;;10.47;;
11004;SDS011;5555;59.622;16.556;2023-07-09T02:13:41;9.27;;;8.53;;
11004;SDS011;5555;59.622;16.556;2023-07-09T02:16:07;10.13;;;9.33;;
11004;SDS011;5555;59.622;16.556;2023-07-09T02:18:33;10.20;;;9.20;;
11004;SDS011;5555;59.622;16.556;2023-07-09T02:20:59;9.40;;;8.60;;
11004;SDS011;5555;59.622;16.556;2023-07-09T02:23:26;7.80;;;7.20;;
11004;SDS011;5555;59.622;16.556;2023-07-09T02:25:53;9.30;;;8.50;;
11004;SDS011;5555;59.622;16.556;2023-07-09T02:28:18;9.73;;;8.93;;
11004;SDS011;5555;59.622;16.556;2023-07-09T02:30:44;9.87;;;8.87;;
11004;SDS011;5555;59.622;16.556;2023-07-09T02:33:10;9.47;;;6.97;;
11004;SDS011;5555;59.622;16.556;2023-07-09T02:35:36;10.33;;;8.63;;
11004;SDS011;5555;59.622;16.556;2023-07-09T02:38:02;10.10;;;9.20;;
11004;SDS011;5555;59.622;16.556;2023-07-09T02:40:28;9.60;;;8.70;;
11004;SDS011;5555;59.622;16.556;2023-07-09T02:42:54;12.57;;;10.03;;
11004;SDS011;5555;59.622;16.556;2023-07-09T02:45:20;9.30;;;8.47;;
11004;SDS011;5555;59.622;16.556;2023-07-09T02:47:46;9.23;;;8.47;;
11004;SDS011;5555;59.622;16.556;2023-07-09T02:50:11;10.80;;;9.23;;
11004;SDS011;5555;59.622;16.556;2023-07-09T02:52:37;9.33;;;8.53;;
11004;SDS011;5555;59.622;16.556;2023-07-09T02:55:04;10.53;;;9.73;;
11004;SDS011;5555;59.622;16.556;2023-07-09T02:57:30;11.13;;;9.43;;
11004;SDS011;5555;59.622;16.556;2023-07-09T02:59:56;11.27;;;10.23;;
11004;SDS011;5555;59.622;16.556;2023-07-09T03:02:21;13.00;;;9.53;;
11004;SDS011;5555;59.622;16.556;2023-07-09T03:04:47;10.07;;;9.17;;
11004;SDS011;5555;59.622;16.556;2023-07-09T03:07:12;10.57;;;8.67;;
11004;SDS011;5555;59.622;16.556;2023-07-09T03:09:38;8.50;;;7.70;;
11004;SDS011;5555;59.622;16.556;2023-07-09T03:12:04;9.30;;;8.50;;
11004;SDS011;5555;59.622;16.556;2023-07-09T03:14:30;8.70;;;7.90;;
11004;SDS011;5555;59.622;16.556;2023-07-09T03:16:55;8.77;;;8.00;;
11004;SDS011;5555;59.622;16.556;2023-07-09T03:19:21;9.50;;;8.67;;
11004;SDS011;5555;59.622;16.556;2023-07-09T03:21:47;8.73;;;8.07;;
11004;SDS011;5555;59.622;16.556;2023-07-09T03:24:13;9.97;;;8.23;;
11004;SDS011;5555;59.622;16.556;2023-07-09T03:26:43;8.90;;;8.00;;
11004;SDS011;5555;59.622;16.556;2023-07-09T03:29:10;8.77;;;8.03;;
11004;SDS011;5555;59.622;16.556;2023-07-09T03:31:36;7.83;;;7.10;;
11004;SDS011;5555;59.622;16.556;2023-07-09T03:34:02;8.40;;;7.60;;
11004;SDS011;5555;59.622;16.556;2023-07-09T03:36:27;8.17;;;7.47;;
11004;SDS011;5555;59.622;16.556;2023-07-09T03:38:53;11.50;;;8.20;;
11004;SDS011;5555;59.622;16.556;2023-07-09T03:41:19;7.47;;;6.83;;
11004;SDS011;5555;59.622;16.556;2023-07-09T03:43:45;7.80;;;7.10;;
11004;SDS011;5555;59.622;16.556;2023-07-09T03:46:11;7.77;;;7.10;;
11004;SDS011;5555;59.622;16.556;2023-07-09T03:48:37;9.10;;;7.63;;
11004;SDS011;5555;59.622;16.556;2023-07-09T03:51:03;9.73;;;7.43;;
11004;SDS011;5555;59.622;16.556;2023-07-09T03:53:29;7.50;;;6.80;;
11004;SDS011;5555;59.622;16.556;2023-07-09T03:55:55;7.57;;;6.93;;
11004;SDS011;5555;59.622;16.556;2023-07-09T03:58:21;9.83;;;6.77;;
11004;SDS011;5555;59.622;16.556;2023-07-09T04:00:48;7.53;;;6.93;;
11004;SDS011;5555;59.622;16.556;2023-07-09T04:03:14;7.13;;;6.40;;
11004;SDS011;5555;59.622;16.556;2023-07-09T04:05:39;8.40;;;6.63;;
11004;SDS011;5555;59.622;16.556;2023-07-09T04:08:05;9.13;;;7.07;;
11004;SDS011;5555;59.622;16.556;2023-07-09T04:10:31;7.63;;;7.03;;
11004;SDS011;5555;59.622;16.556;2023-07-09T04:12:56;7.10;;;6.50;;
11004;SDS011;5555;59.622;16.556;2023-07-09T04:15:22;6.70;;;6.20;;
11004;SDS011;5555;59.622;16.556;2023-07-09T04:17:48;6.87;;;6.23;;
11004;SDS011;5555;59.622;16.556;2023-07-09T04:20:13;7.20;;;6.60;;
11004;SDS011;5555;59.622;16.556;2023-07-09T04:22:39;6.43;;;5.93;;
11004;SDS011;5555;59.622;16.556;2023-07-09T04:25:05;7.00;;;6.40;;
11004;SDS011;5555;59.622;16.556;2023-07-09T04:27:34;6.83;;;5.70;;
11004;SDS011;5555;59.622;16.556;2023-07-09T04:30:01;6.50;;;5.40;;
11004;SDS011;5555;59.622;16.556;2023-07-09T04:32:27;6.17;;;5.53;;
11004;SDS011;5555;59.622;16.556;2023-07-09T04:34:53;5.90;;;5.40;;
11004;SDS011;5555;59.622;16.556;2023-07-09T04:37:19;5.40;;;5.00;;
11004;SDS011;5555;59.622;16.556;2023-07-09T04:39:45;5.67;;;4.70;;
11004;SDS011;5555;59.622;16.556;2023-07-09T04:42:13;5.83;;;5.33;;
11004;SDS011;5555;59.622;16.556;2023-07-09T04:44:39;5.60;;;5.07;;
11004;SDS011;5555;59.622;16.556;2023-07-09T04:47:06;6.43;;;5.17;;
11004;SDS011;5555;59.622;16.556;2023-07-09T04:49:32;5.27;;;4.87;;
11004;SDS011;5555;59.622;16.556;2023-07-09T04:51:57;6.27;;;4.70;;
11004;SDS011;5555;59.622;16.556;2023-07-09T04:54:24;5.20;;;4.70;;
11004;SDS011;5555;59.622;16.556;2023-07-09T04:56:50;7.70;;;4.60;;
11004;SDS011;5555;59.622;16.556;2023-07-09T04:59:16;7.20;;;4.23;;
11004;SDS011;5555;59.622;16.556;2023-07-09T05:01:41;4.87;;;4.27;;
11004;SDS011;5555;59.622;16.556;2023-07-09T05:04:07;4.70;;;3.90;;
11004;SDS011;5555;59.622;16.556;2023-07-09T05:06:33;5.27;;;4.10;;
11004;SDS011;5555;59.622;16.556;2023-07-09T05:08:59;6.20;;;3.60;;
11004;SDS011;5555;59.622;16.556;2023-07-09T05:11:25;4.23;;;3.93;;
11004;SDS011;5555;59.622;16.556;2023-07-09T05:13:51;5.33;;;4.20;;
11004;SDS011;5555;59.622;16.556;2023-07-09T05:16:16;3.93;;;3.70;;
11004;SDS011;5555;59.622;16.556;2023-07-09T05:18:42;4.67;;;4.17;;
11004;SDS011;5555;59.622;16.556;2023-07-09T05:21:09;4.10;;;3.80;;
11004;SDS011;5555;59.622;16.556;2023-07-09T05:23:35;4.33;;;4.03;;
11004;SDS011;5555;59.622;16.556;2023-07-09T05:26:01;4.20;;;3.80;;
11004;SDS011;5555;59.622;16.556;2023-07-09T05:28:28;4.93;;;4.17;;
11004;SDS011;5555;59.622;16.556;2023-07-09T05:30:54;4.83;;;3.70;;
11004;SDS011;5555;59.622;16.556;2023-07-09T05:33:20;4.27;;;3.97;;
11004;SDS011;5555;59.622;16.556;2023-07-09T05:35:46;4.40;;;3.90;;
11004;SDS011;5555;59.622;16.556;2023-07-09T05:38:13;5.20;;;4.23;;
11004;SDS011;5555;59.622;16.556;2023-07-09T05:40:39;4.43;;;4.07;;
11004;SDS011;5555;59.622;16.556;2023-07-09T05:43:05;4.40;;;4.00;;
11004;SDS011;5555;59.622;16.556;2023-07-09T05:45:31;4.43;;;4.13;;
11004;SDS011;5555;59.622;16.556;2023-07-09T05:47:57;4.63;;;3.90;;
11004;SDS011;5555;59.622;16.556;2023-07-09T05:50:23;4.60;;;3.70;;
11004;SDS011;5555;59.622;16.556;2023-07-09T05:52:49;4.60;;;4.20;;
11004;SDS011;5555;59.622;16.556;2023-07-09T05:55:15;3.60;;;3.30;;
11004;SDS011;5555;59.622;16.556;2023-07-09T05:57:40;3.73;;;3.53;;
11004;SDS011;5555;59.622;16.556;2023-07-09T06:00:06;4.00;;;3.60;;
11004;SDS011;5555;59.622;16.556;2023-07-09T06:02:33;4.40;;;3.77;;
11004;SDS011;5555;59.622;16.556;2023-07-09T06:04:58;4.30;;;3.60;;
11004;SDS011;5555;59.622;16.556;2023-07-09T06:07:24;3.93;;;3.20;;
11004;SDS011;5555;59.622;16.556;2023-07-09T06:09:50;4.93;;;3.00;;
11004;SDS011;5555;59.622;16.556;2023-07-09T06:12:15;3.77;;;3.20;;
11004;SDS011;5555;59.622;16.556;2023-07-09T06:14:42;3.33;;;3.10;;
11004;SDS011;5555;59.622;16.556;2023-07-09T06:17:07;3.80;;;3.50;;
11004;SDS011;5555;59.622;16.556;2023-07-09T06:19:33;3.73;;;3.30;;
11004;SDS011;5555;59.622;16.556;2023-07-09T06:21:59;3.50;;;3.23;;
11004;SDS011;5555;59.622;16.556;2023-07-09T06:24:24;4.13;;;3.03;;
11004;SDS011;5555;59.622;16.556;2023-07-09T06:26:50;3.53;;;2.40;;
11004;SDS011;5555;59.622;16.556;2023-07-09T06:29:15;3.50;;;2.80;;
11004;SDS011;5555;59.622;16.556;2023-07-09T06:31:41;3.77;;;3.30;;
11004;SDS011;5555;59.622;16.556;2023-07-09T06:34:07;3.40;;;2.90;;
11004;SDS011;5555;59.622;16.556;2023-07-09T06:36:34;2.70;;;2.50;;
11004;SDS011;5555;59.622;16.556;2023-07-09T06:39:00;3.60;;;3.30;;
11004;SDS011;5555;59.622;16.556;2023-07-09T06:41:27;2.80;;;2.60;;
11004;SDS011;5555;59.622;16.556;2023-07-09T06:43:53;3.03;;;2.60;;
11004;SDS011;5555;59.622;16.556;2023-07-09T06:46:19;3.53;;;2.80;;
11004;SDS011;5555;59.622;16.556;2023-07-09T06:48:45;2.50;;;2.30;;
11004;SDS011;5555;59.622;16.556;2023-07-09T06:51:11;2.83;;;2.63;;
11004;SDS011;5555;59.622;16.556;2023-07-09T06:53:37;2.97;;;2.40;;
11004;SDS011;5555;59.622;16.556;2023-07-09T06:56:04;2.83;;;2.63;;
11004;SDS011;5555;59.622;16.556;2023-07-09T06:58:31;2.63;;;2.53;;
11004;SDS011;5555;59.622;16.556;2023-07-09T07:00:59;3.40;;;2.57;;
11004;SDS011;5555;59.622;16.556;2023-07-09T07:03:28;3.70;;;2.50;;
11004;SDS011;5555;59.622;16.556;2023-07-09T07:05:54;3.40;;;2.40;;
11004;SDS011;5555;59.622;16.556;2023-07-09T07:08:21;2.40;;;2.20;;
11004;SDS011;5555;59.622;16.556;2023-07-09T07:10:48;3.90;;;2.40;;
11004;SDS011;5555;59.622;16.556;2023-07-09T07:13:15;4.20;;;2.50;;
11004;SDS011;5555;59.622;16.556;2023-07-09T07:15:41;2.53;;;2.33;;
11004;SDS011;5555;59.622;16.556;2023-07-09T07:18:07;2.60;;;2.40;;
11004;SDS011;5555;59.622;16.556;2023-07-09T07:20:33;2.93;;;2.70;;
11004;SDS011;5555;59.622;16.556;2023-07-09T07:22:59;2.77;;;2.57;;
11004;SDS011;5555;59.622;16.556;2023-07-09T07:25:25;4.07;;;2.43;;
11004;SDS011;5555;59.622;16.556;2023-07-09T07:27:51;3.27;;;2.33;;
11004;SDS011;5555;59.622;16.556;2023-07-09T07:30:17;2.30;;;2.13;;
11004;SDS011;5555;59.622;16.556;2023-07-09T07:32:46;2.80;;;2.50;;
11004;SDS011;5555;59.622;16.556;2023-07-09T07:35:14;2.40;;;2.23;;
11004;SDS011;5555;59.622;16.556;2023-07-09T07:37:40;3.53;;;2.43;;
11004;SDS011;5555;59.622;16.556;2023-07-09T07:40:07;4.43;;;2.47;;
11004;SDS011;5555;59.622;16.556;2023-07-09T07:42:33;2.40;;;2.20;;
11004;SDS011;5555;59.622;16.556;2023-07-09T07:44:59;2.70;;;2.50;;
11004;SDS011;5555;59.622;16.556;2023-07-09T07:47:25;2.47;;;2.13;;
11004;SDS011;5555;59.622;16.556;2023-07-09T07:49:52;2.53;;;2.33;;
11004;SDS011;5555;59.622;16.556;2023-07-09T07:52:18;3.53;;;2.30;;
11004;SDS011;5555;59.622;16.556;2023-07-09T07:54:44;2.27;;;2.17;;
11004;SDS011;5555;59.622;16.556;2023-07-09T07:57:10;2.60;;;2.40;;
11004;SDS011;5555;59.622;16.556;2023-07-09T07:59:36;2.23;;;2.13;;
11004;SDS011;5555;59.622;16.556;2023-07-09T08:02:03;4.43;;;2.40;;
11004;SDS011;5555;59.622;16.556;2023-07-09T08:04:30;2.70;;;2.50;;
11004;SDS011;5555;59.622;16.556;2023-07-09T08:06:56;2.30;;;2.20;;
11004;SDS011;5555;59.622;16.556;2023-07-09T08:09:22;2.90;;;2.67;;
11004;SDS011;5555;59.622;16.556;2023-07-09T08:11:47;3.67;;;2.80;;
11004;SDS011;5555;59.622;16.556;2023-07-09T08:14:14;4.13;;;2.60;;
11004;SDS011;5555;59.622;16.556;2023-07-09T08:16:40;2.83;;;2.50;;
11004;SDS011;5555;59.622;16.556;2023-07-09T08:19:06;2.40;;;2.20;;
11004;SDS011;5555;59.622;16.556;2023-07-09T08:21:31;2.60;;;2.40;;
11004;SDS011;5555;59.622;16.556;2023-07-09T08:23:57;2.47;;;2.30;;
11004;SDS011;5555;59.622;16.556;2023-07-09T08:26:23;2.23;;;2.10;;
11004;SDS011;5555;59.622;16.556;2023-07-09T08:28:49;3.17;;;2.70;;
11004;SDS011;5555;59.622;16.556;2023-07-09T08:31:15;3.53;;;2.37;;
11004;SDS011;5555;59.622;16.556;2023-07-09T08:33:41;3.43;;;2.50;;
11004;SDS011;5555;59.622;16.556;2023-07-09T08:36:07;2.93;;;2.67;;
11004;SDS011;5555;59.622;16.556;2023-07-09T08:38:33;2.53;;;2.10;;
11004;SDS011;5555;59.622;16.556;2023-07-09T08:41:00;2.53;;;2.33;;
11004;SDS011;5555;59.622;16.556;2023-07-09T08:46:39;2.23;;;2.10;;
11004;SDS011;5555;59.622;16.556;2023-07-09T08:48:59;3.67;;;3.00;;
11004;SDS011;5555;59.622;16.556;2023-07-09T08:54:02;2.73;;;2.20;;
11004;SDS011;5555;59.622;16.556;2023-07-09T08:56:29;3.07;;;2.50;;
11004;SDS011;5555;59.622;16.556;2023-07-09T08:58:58;4.17;;;2.60;;
11004;SDS011;5555;59.622;16.556;2023-07-09T09:01:34;3.63;;;2.60;;
11004;SDS011;5555;59.622;16.556;2023-07-09T09:04:20;2.40;;;2.20;;
11004;SDS011;5555;59.622;16.556;2023-07-09T09:09:32;2.73;;;2.30;;
11004;SDS011;5555;59.622;16.556;2023-07-09T09:12:25;3.17;;;2.47;;
11004;SDS011;5555;59.622;16.556;2023-07-09T09:15:04;2.87;;;2.20;;
11004;SDS011;5555;59.622;16.556;2023-07-09T09:17:42;2.00;;;1.90;;
11004;SDS011;5555;59.622;16.556;2023-07-09T09:20:12;2.50;;;2.10;;
11004;SDS011;5555;59.622;16.556;2023-07-09T09:22:48;2.20;;;2.07;;
11004;SDS011;5555;59.622;16.556;2023-07-09T09:27:39;2.13;;;2.00;;
11004;SDS011;5555;59.622;16.556;2023-07-09T09:30:09;2.93;;;2.17;;
11004;SDS011;5555;59.622;16.556;2023-07-09T09:32:42;2.20;;;2.00;;
11004;SDS011;5555;59.622;16.556;2023-07-09T09:35:13;2.13;;;1.80;;
11004;SDS011;5555;59.622;16.556;2023-07-09T09:37:44;2.53;;;1.87;;
11004;SDS011;5555;59.622;16.556;2023-07-09T09:40:17;2.10;;;1.90;;
11004;SDS011;5555;59.622;16.556;2023-07-09T09:42:44;2.60;;;1.90;;
11004;SDS011;5555;59.622;16.556;2023-07-09T09:45:13;2.10;;;1.97;;
11004;SDS011;5555;59.622;16.556;2023-07-09T09:47:42;2.40;;;2.20;;
11004;SDS011;5555;59.622;16.556;2023-07-09T09:50:15;1.90;;;1.70;;
11004;SDS011;5555;59.622;16.556;2023-07-09T09:52:46;2.47;;;1.87;;
11004;SDS011;5555;59.622;16.556;2023-07-09T09:55:22;2.50;;;1.80;;
11004;SDS011;5555;59.622;16.556;2023-07-09T09:57:52;2.45;;;2.05;;
11004;SDS011;5555;59.622;16.556;2023-07-09T10:00:21;1.67;;;1.58;;
11004;SDS011;5555;59.622;16.556;2023-07-09T10:02:50;2.45;;;2.00;;
11004;SDS011;5555;59.622;16.556;2023-07-09T10:05:21;1.90;;;1.80;;
11004;SDS011;5555;59.622;16.556;2023-07-09T10:07:59;2.22;;;1.75;;
11004;SDS011;5555;59.622;16.556;2023-07-09T10:10:33;1.80;;;1.67;;
11004;SDS011;5555;59.622;16.556;2023-07-09T10:16:01;1.80;;;1.70;;
11004;SDS011;5555;59.622;16.556;2023-07-09T10:21:29;2.13;;;1.90;;
11004;SDS011;5555;59.622;16.556;2023-07-09T10:27:13;1.87;;;1.60;;
11004;SDS011;5555;59.622;16.556;2023-07-09T10:32:18;2.13;;;1.93;;
11004;SDS011;5555;59.622;16.556;2023-07-09T10:35:07;2.00;;;1.73;;
11004;SDS011;5555;59.622;16.556;2023-07-09T10:37:50;2.23;;;1.60;;
11004;SDS011;5555;59.622;16.556;2023-07-09T10:40:25;3.10;;;1.93;;
11004;SDS011;5555;59.622;16.556;2023-07-09T10:42:57;3.47;;;1.80;;
11004;SDS011;5555;59.622;16.556;2023-07-09T10:45:31;2.30;;;1.70;;
11004;SDS011;5555;59.622;16.556;2023-07-09T10:48:18;2.13;;;1.77;;
11004;SDS011;5555;59.622;16.556;2023-07-09T10:50:56;1.70;;;1.60;;
11004;SDS011;5555;59.622;16.556;2023-07-09T10:53:39;1.95;;;1.77;;
11004;SDS011;5555;59.622;16.556;2023-07-09T10:56:10;1.98;;;1.60;;
11004;SDS011;5555;59.622;16.556;2023-07-09T11:01:14;1.50;;;1.33;;
11004;SDS011;5555;59.622;16.556;2023-07-09T11:03:54;1.55;;;1.45;;
11004;SDS011;5555;59.622;16.556;2023-07-09T11:06:31;1.85;;;1.42;;
11004;SDS011;5555;59.622;16.556;2023-07-09T11:09:06;1.40;;;1.30;;
11004;SDS011;5555;59.622;16.556;2023-07-09T11:11:45;1.85;;;1.50;;
11004;SDS011;5555;59.622;16.556;2023-07-09T11:14:21;1.45;;;1.35;;
11004;SDS011;5555;59.622;16.556;2023-07-09T11:16:59;3.08;;;1.42;;
11004;SDS011;5555;59.622;16.556;2023-07-09T11:19:26;1.52;;;1.42;;
11004;SDS011;5555;59.622;16.556;2023-07-09T11:24:48;1.70;;;1.60;;
11004;SDS011;5555;59.622;16.556;2023-07-09T11:27:31;2.63;;;1.40;;
11004;SDS011;5555;59.622;16.556;2023-07-09T11:29:59;1.90;;;1.30;;
11004;SDS011;5555;59.622;16.556;2023-07-09T11:32:46;1.45;;;1.35;;
11004;SDS011;5555;59.622;16.556;2023-07-09T11:35:22;1.60;;;1.50;;
11004;SDS011;5555;59.622;16.556;2023-07-09T11:37:49;2.38;;;1.40;;
11004;SDS011;5555;59.622;16.556;2023-07-09T11:40:15;1.30;;;1.20;;
11004;SDS011;5555;59.622;16.556;2023-07-09T11:42:51;1.73;;;1.50;;
11004;SDS011;5555;59.622;16.556;2023-07-09T11:45:31;1.50;;;1.40;;
11004;SDS011;5555;59.622;16.556;2023-07-09T11:50:46;1.20;;;1.10;;
11004;SDS011;5555;59.622;16.556;2023-07-09T11:53:28;2.13;;;1.75;;
11004;SDS011;5555;59.622;16.556;2023-07-09T11:56:01;2.45;;;1.67;;
11004;SDS011;5555;59.622;16.556;2023-07-09T11:58:27;2.00;;;1.90;;
11004;SDS011;5555;59.622;16.556;2023-07-09T12:00:57;2.25;;;1.60;;
11004;SDS011;5555;59.622;16.556;2023-07-09T12:05:52;1.50;;;1.40;;
11004;SDS011;5555;59.622;16.556;2023-07-09T12:08:30;3.83;;;1.40;;
11004;SDS011;5555;59.622;16.556;2023-07-09T12:11:05;3.42;;;1.35;;
11004;SDS011;5555;59.622;16.556;2023-07-09T12:13:38;1.40;;;1.30;;
11004;SDS011;5555;59.622;16.556;2023-07-09T12:16:04;2.03;;;1.23;;
11004;SDS011;5555;59.622;16.556;2023-07-09T12:18:43;1.45;;;1.30;;
11004;SDS011;5555;59.622;16.556;2023-07-09T12:21:09;3.53;;;1.35;;
11004;SDS011;5555;59.622;16.556;2023-07-09T12:23:35;1.70;;;1.02;;
11004;SDS011;5555;59.622;16.556;2023-07-09T12:26:01;2.47;;;1.48;;
11004;SDS011;5555;59.622;16.556;2023-07-09T12:28:29;2.13;;;1.27;;
11004;SDS011;5555;59.622;16.556;2023-07-09T12:30:55;4.80;;;1.80;;
11004;SDS011;5555;59.622;16.556;2023-07-09T12:33:22;1.95;;;1.85;;
11004;SDS011;5555;59.622;16.556;2023-07-09T12:35:56;1.88;;;1.70;;
11004;SDS011;5555;59.622;16.556;2023-07-09T12:38:24;2.00;;;1.90;;
11004;SDS011;5555;59.622;16.556;2023-07-09T12:40:51;1.73;;;1.63;;
11004;SDS011;5555;59.622;16.556;2023-07-09T12:43:24;2.25;;;2.05;;
11004;SDS011;5555;59.622;16.556;2023-07-09T12:45:52;1.80;;;1.70;;
11004;SDS011;5555;59.622;16.556;2023-07-09T12:48:19;2.00;;;1.80;;
11004;SDS011;5555;59.622;16.556;2023-07-09T12:50:49;2.15;;;1.80;;
11004;SDS011;5555;59.622;16.556;2023-07-09T12:53:17;4.00;;;1.98;;
11004;SDS011;5555;59.622;16.556;2023-07-09T12:55:46;1.90;;;1.80;;
11004;SDS011;5555;59.622;16.556;2023-07-09T12:58:20;3.22;;;1.75;;
11004;SDS011;5555;59.622;16.556;2023-07-09T13:00:52;1.75;;;1.65;;
11004;SDS011;5555;59.622;16.556;2023-07-09T13:03:26;1.90;;;1.80;;
11004;SDS011;5555;59.622;16.556;2023-07-09T13:05:57;2.80;;;1.75;;
11004;SDS011;5555;59.622;16.556;2023-07-09T13:08:26;2.38;;;1.60;;
11004;SDS011;5555;59.622;16.556;2023-07-09T13:10:53;2.40;;;1.42;;
11004;SDS011;5555;59.622;16.556;2023-07-09T13:13:20;2.15;;;1.30;;
11004;SDS011;5555;59.622;16.556;2023-07-09T13:15:56;1.80;;;1.67;;
11004;SDS011;5555;59.622;16.556;2023-07-09T13:18:26;1.80;;;1.40;;
11004;SDS011;5555;59.622;16.556;2023-07-09T13:20:55;1.40;;;1.30;;
11004;SDS011;5555;59.622;16.556;2023-07-09T13:23:25;1.65;;;1.52;;
11004;SDS011;5555;59.622;16.556;2023-07-09T13:25:53;2.80;;;1.65;;
11004;SDS011;5555;59.622;16.556;2023-07-09T13:28:26;1.63;;;1.52;;
11004;SDS011;5555;59.622;16.556;2023-07-09T13:30:57;1.58;;;1.48;;
11004;SDS011;5555;59.622;16.556;2023-07-09T13:33:23;1.45;;;1.35;;
11004;SDS011;5555;59.622;16.556;2023-07-09T13:35:49;2.10;;;1.30;;
11004;SDS011;5555;59.622;16.556;2023-07-09T13:38:18;1.90;;;1.58;;
11004;SDS011;5555;59.622;16.556;2023-07-09T13:40:47;1.30;;;1.20;;
11004;SDS011;5555;59.622;16.556;2023-07-09T13:43:36;1.63;;;1.05;;
11004;SDS011;5555;59.622;16.556;2023-07-09T13:46:01;1.73;;;1.00;;
11004;SDS011;5555;59.622;16.556;2023-07-09T13:48:29;1.50;;;0.80;;
11004;SDS011;5555;59.622;16.556;2023-07-09T13:50:56;1.88;;;0.90;;
11004;SDS011;5555;59.622;16.556;2023-07-09T13:53:23;1.45;;;1.35;;
11004;SDS011;5555;59.622;16.556;2023-07-09T13:55:54;1.23;;;1.20;;
11004;SDS011;5555;59.622;16.556;2023-07-09T13:58:21;1.10;;;1.10;;
11004;SDS011;5555;59.622;16.556;2023-07-09T14:00:50;1.30;;;1.15;;
11004;SDS011;5555;59.622;16.556;2023-07-09T14:03:24;1.63;;;1.10;;
11004;SDS011;5555;59.622;16.556;2023-07-09T14:05:51;1.20;;;1.10;;
11004;SDS011;5555;59.622;16.556;2023-07-09T14:08:17;1.20;;;0.95;;
11004;SDS011;5555;59.622;16.556;2023-07-09T14:10:45;2.55;;;1.05;;
11004;SDS011;5555;59.622;16.556;2023-07-09T14:13:15;1.15;;;1.05;;
11004;SDS011;5555;59.622;16.556;2023-07-09T14:15:43;1.13;;;1.02;;
11004;SDS011;5555;59.622;16.556;2023-07-09T14:18:13;1.15;;;1.05;;
11004;SDS011;5555;59.622;16.556;2023-07-09T14:20:40;2.63;;;1.30;;
11004;SDS011;5555;59.622;16.556;2023-07-09T14:23:11;1.98;;;1.08;;
11004;SDS011;5555;59.622;16.556;2023-07-09T14:25:38;1.20;;;1.10;;
11004;SDS011;5555;59.622;16.556;2023-07-09T14:28:12;1.48;;;1.02;;
11004;SDS011;5555;59.622;16.556;2023-07-09T14:30:40;1.20;;;1.10;;
11004;SDS011;5555;59.622;16.556;2023-07-09T14:33:14;1.10;;;1.10;;
11004;SDS011;5555;59.622;16.556;2023-07-09T14:35:42;1.17;;;0.93;;
11004;SDS011;5555;59.622;16.556;2023-07-09T14:38:19;1.10;;;1.00;;
11004;SDS011;5555;59.622;16.556;2023-07-09T14:40:50;1.20;;;1.10;;
11004;SDS011;5555;59.622;16.556;2023-07-09T14:43:17;0.90;;;0.90;;
11004;SDS011;5555;59.622;16.556;2023-07-09T14:45:43;1.58;;;1.10;;
11004;SDS011;5555;59.622;16.556;2023-07-09T14:48:13;2.05;;;1.20;;
11004;SDS011;5555;59.622;16.556;2023-07-09T14:50:40;1.00;;;1.00;;
11004;SDS011;5555;59.622;16.556;2023-07-09T14:53:26;1.10;;;1.00;;
11004;SDS011;5555;59.622;16.556;2023-07-09T14:55:53;2.58;;;1.40;;
11004;SDS011;5555;59.622;16.556;2023-07-09T14:58:20;1.67;;;1.00;;
11004;SDS011;5555;59.622;16.556;2023-07-09T15:00:47;1.25;;;1.00;;
11004;SDS011;5555;59.622;16.556;2023-07-09T15:03:24;1.02;;;0.93;;
11004;SDS011;5555;59.622;16.556;2023-07-09T15:05:51;0.90;;;0.90;;
11004;SDS011;5555;59.622;16.556;2023-07-09T15:08:20;1.33;;;0.90;;
11004;SDS011;5555;59.622;16.556;2023-07-09T15:10:47;0.88;;;0.88;;
11004;SDS011;5555;59.622;16.556;2023-07-09T15:13:18;2.72;;;1.10;;
11004;SDS011;5555;59.622;16.556;2023-07-09T15:15:56;1.60;;;1.13;;
11004;SDS011;5555;59.622;16.556;2023-07-09T15:18:22;1.30;;;1.20;;
11004;SDS011;5555;59.622;16.556;2023-07-09T15:21:06;1.33;;;1.08;;
11004;SDS011;5555;59.622;16.556;2023-07-09T15:23:36;2.35;;;1.73;;
11004;SDS011;5555;59.622;16.556;2023-07-09T15:26:13;0.90;;;0.90;;
11004;SDS011;5555;59.622;16.556;2023-07-09T15:28:39;6.05;;;1.05;;
11004;SDS011;5555;59.622;16.556;2023-07-09T15:31:06;1.00;;;0.90;;